Airfield :
LOGIN :

Register | Disclaimer

   EN    FR    IT 

 










Legend :    VFR   Marginal VFR   IFR   Intensive IFR   Very Intensive IFR
Visi :
Ceiling :
>= 8 km
>= 3000ft
5 to 8 km
1000 to 3000 ft
1500m to 5 km
500 to 1000 ft
800 to 1500m
200 to 500 ft
< 800m
< 200 ft
Symbols :   Thunderstorms  Fog  Heavy snow  Heavy precipitations  Wind > 20 kt
SIGMETs :     Misc.  Thunderstorms  Icing  Turbulence  Mountain Waves  Volcanic Ashes






- Airport Elevation : 17 ft
- IATA code : MPL


LFMT - Montpellier Méditerranée

CURRENT METAR :
  • 262130Z AUTO 27003KT 1200 1100 R30/2200D BR FEW003 06/06 Q1021 TEMPO 0600 FG VV///

EXPIRED METARs :
  • 262100Z AUTO 31001KT 0500 R30/0600D FG VV/// 06/06 Q1021 TEMPO 3000 BR OVC008
  • 262030Z AUTO 00000KT 1100 1000 R30/1400D BR FEW003 07/06 Q1021 TEMPO 3000 BR OVC008
  • 262000Z AUTO 00000KT 3800 0600 R30/2300U BCFG NSC 07/07 Q1021 TEMPO 0500 FG VV///
  • 261930Z AUTO 00000KT 5000 0600 R30/P5000 BCFG NSC 08/07 Q1021 NOSIG
  • 261900Z AUTO 23002KT 9000 FEW018 BKN072 09/08 Q1021 NOSIG

TAF AMD TAF LFMT
Valid from the 26 at 21:00 until the 27 at 21:00 UTC


262122Z 2621/2721 VRB03KT CAVOK
TEMPO 2621/2710 3000 BR OVC008
PROB40
TEMPO 2621/2710 0500 FG VV///
BECMG 2710/2713 02010KT BKN020
BECMG 2718/2721 CAVOK
ATIS : +33 4 67 13 11 70



MET'MAP, your aeronautical weather chart ! - Copyright ORBIFLY December 2007 - Disclaimer

ORBIFLY MET'MAP TEAM :

Programming & Development : Alexandra Zaïnal
Concept & original design : Baudouin d'Aumeries
Assistance for programming : Marc-Olivier Méhu
Technical & hardware support : Manuel Goepfert

Contact : metmap@orbifly.com




SOURCES & CREDITS :

   NOAA